Time;durP1;ratioP1;P1;durP2;ratioP2;P2;SDS_P1;SDS_P2;PMS_P1;PMS_P2;Temp;Humidity;BMP_temperature;BMP_pressure;BME280_temperature;BME280_humidity;BME280_pressure;Samples;Min_cycle;Max_cycle;Signal;HPM_P1;HPM_P2
2021/06/23 00:02:19;;;;;;;15.80;9.33;;;15.30;10.60;15.90;100641.00;;;;4991355;28;20914;-77
2021/06/23 00:04:47;;;;;;;13.10;8.60;;;15.30;10.40;15.90;100599.00;;;;5002237;28;20987;-77
2021/06/23 00:07:17;;;;;;;13.70;9.60;;;15.30;10.40;16.00;100622.00;;;;4991242;28;20443;-76
2021/06/23 00:09:45;;;;;;;9.43;8.43;;;15.40;10.30;16.00;100633.00;;;;4986576;28;20892;-78
2021/06/23 00:12:17;;;;;;;14.90;9.40;;;15.50;10.30;15.90;100608.00;;;;4991598;28;20471;-75
2021/06/23 00:14:45;;;;;;;11.60;8.60;;;15.40;10.00;16.00;100630.00;;;;4992920;28;20513;-76
2021/06/23 00:17:14;;;;;;;9.80;8.53;;;15.40;9.70;16.00;100655.00;;;;4986162;28;20458;-77
2021/06/23 00:19:43;;;;;;;12.40;9.13;;;15.40;9.70;15.70;100654.00;;;;5007845;28;20447;-76
2021/06/23 00:22:11;;;;;;;10.10;9.10;;;15.40;9.50;16.00;100640.00;;;;5006052;28;20474;-76
2021/06/23 00:24:41;;;;;;;13.50;9.03;;;15.40;9.70;15.90;100655.00;;;;5005342;28;20466;-77
2021/06/23 00:27:09;;;;;;;13.50;8.40;;;15.40;10.10;16.00;100648.00;;;;4992892;28;20534;-76
2021/06/23 00:29:37;;;;;;;9.67;8.80;;;15.40;9.50;16.00;100640.00;;;;4993171;28;20470;-78
2021/06/23 00:32:10;;;;;;;13.83;9.37;;;15.40;9.40;15.80;100626.00;;;;4992860;28;20482;-76
2021/06/23 00:34:39;;;;;;;12.40;9.20;;;15.50;9.50;16.20;100633.00;;;;4982687;28;20455;-77
2021/06/23 00:37:07;;;;;;;11.00;8.27;;;15.60;9.50;16.30;100656.00;;;;4990855;28;20463;-76
2021/06/23 00:39:36;;;;;;;11.00;8.67;;;15.60;8.00;16.30;100650.00;;;;4995002;28;20585;-77
2021/06/23 00:42:10;;;;;;;15.33;8.33;;;15.70;8.00;16.40;100660.00;;;;4989009;28;20566;-76
2021/06/23 00:44:41;;;;;;;12.57;8.10;;;15.70;7.90;16.50;100657.00;;;;4992566;28;20471;-77
2021/06/23 00:47:10;;;;;;;11.37;8.17;;;15.80;8.00;16.50;100647.00;;;;5006798;28;20487;-77
2021/06/23 00:49:39;;;;;;;10.10;7.83;;;15.80;7.40;16.50;100643.00;;;;4992742;28;20482;-77
2021/06/23 00:52:30;;;;;;;10.93;8.07;;;15.80;7.50;16.50;100645.00;;;;4985073;28;20486;-77
2021/06/23 00:55:04;;;;;;;11.33;8.03;;;15.80;7.70;16.50;100641.00;;;;4993350;28;21221;-78
2021/06/23 00:57:40;;;;;;;10.50;7.87;;;15.70;7.70;16.40;100634.00;;;;4999240;28;20462;-77
2021/06/23 01:00:10;;;;;;;12.20;9.10;;;15.70;7.90;16.40;100634.00;;;;4990065;28;20470;-76
2021/06/23 01:02:39;;;;;;;9.20;7.83;;;15.70;7.70;16.40;100641.00;;;;4987741;28;20555;-77
2021/06/23 01:05:10;;;;;;;13.70;8.70;;;15.70;8.10;16.30;100644.00;;;;4983011;28;20486;-77
2021/06/23 01:07:39;;;;;;;14.50;9.10;;;15.60;7.90;16.30;100594.00;;;;4991367;28;20455;-77
2021/06/23 01:10:09;;;;;;;18.03;9.20;;;15.60;8.20;16.30;100608.00;;;;5004175;28;20473;-75
2021/06/23 01:13:26;;;;;;;11.27;8.03;;;15.60;8.40;16.30;100644.00;;;;5003158;28;20483;-76
2021/06/23 01:15:58;;;;;;;9.90;8.27;;;15.60;8.40;16.30;100626.00;;;;4987137;28;20467;-77
2021/06/23 01:18:28;;;;;;;10.90;7.87;;;15.60;8.40;16.30;100650.00;;;;4989457;28;20451;-77
2021/06/23 01:20:57;;;;;;;11.80;9.37;;;15.60;8.20;16.30;100659.00;;;;4989551;28;20463;-77
2021/06/23 01:23:26;;;;;;;9.83;8.47;;;15.60;8.50;16.30;100536.00;;;;4986001;28;20480;-77
2021/06/23 01:25:55;;;;;;;13.03;8.70;;;15.60;8.50;16.30;100662.00;;;;4984307;28;20462;-77
2021/06/23 01:28:24;;;;;;;11.40;8.67;;;15.60;8.80;16.30;100617.00;;;;4985625;28;20454;-76
2021/06/23 01:31:12;;;;;;;12.80;8.90;;;15.60;8.30;16.30;100671.00;;;;4989823;28;20458;-77
2021/06/23 01:33:40;;;;;;;9.90;8.53;;;15.70;8.50;16.30;100677.00;;;;5006989;28;20474;-77
2021/06/23 01:36:09;;;;;;;9.87;8.50;;;15.70;8.80;16.30;100672.00;;;;4991373;28;20516;-77
2021/06/23 01:38:41;;;;;;;14.03;8.97;;;15.70;8.30;16.30;100676.00;;;;4991005;28;20455;-77
2021/06/23 01:41:10;;;;;;;13.43;8.90;;;15.70;7.90;16.30;100690.00;;;;4989304;28;20454;-77
2021/06/23 01:43:39;;;;;;;17.73;8.60;;;15.70;7.80;16.30;100691.00;;;;4988250;28;20569;-77
2021/06/23 01:46:08;;;;;;;12.60;8.70;;;15.70;7.60;16.20;100660.00;;;;5005786;28;20454;-77
2021/06/23 01:48:37;;;;;;;9.37;8.43;;;15.70;7.80;16.30;100670.00;;;;5008120;28;20533;-77
2021/06/23 01:51:06;;;;;;;12.60;8.77;;;15.70;7.80;16.30;100665.00;;;;4988202;28;20483;-77
2021/06/23 01:53:41;;;;;;;10.00;8.63;;;15.70;7.90;16.30;100660.00;;;;4992235;28;20604;-77
2021/06/23 01:56:09;;;;;;;9.63;8.73;;;15.70;8.00;16.40;100687.00;;;;4990473;28;20486;-77
2021/06/23 01:58:41;;;;;;;9.83;8.87;;;15.70;8.50;16.30;100702.00;;;;4992203;28;20455;-76
2021/06/23 02:01:24;;;;;;;9.53;8.43;;;15.70;7.70;16.30;100704.00;;;;5005227;28;20523;-77
2021/06/23 02:04:10;;;;;;;11.70;8.50;;;15.70;7.90;16.30;100698.00;;;;4987224;28;20574;-76
2021/06/23 02:07:19;;;;;;;8.93;7.97;;;15.70;8.10;16.40;100677.00;;;;5001795;28;20984;-77
2021/06/23 02:10:06;;;;;;;10.87;8.20;;;15.70;8.10;16.40;100676.00;;;;5001590;28;20569;-76
2021/06/23 02:14:01;;;;;;;9.80;8.90;;;15.80;7.90;16.40;100680.00;;;;4991917;28;20462;-77
2021/06/23 02:16:41;;;;;;;10.03;8.10;;;15.70;8.10;16.30;100677.00;;;;4995692;28;20458;-76
2021/06/23 02:19:14;;;;;;;9.30;8.40;;;15.70;8.10;16.30;100677.00;;;;4995975;28;20466;-77
2021/06/23 02:22:01;;;;;;;9.77;8.57;;;15.70;8.50;16.30;100662.00;;;;4995780;28;20468;-77
2021/06/23 02:24:33;;;;;;;10.63;9.03;;;15.60;8.30;16.20;100668.00;;;;4985317;28;20960;-76
2021/06/23 02:27:12;;;;;;;12.27;9.00;;;15.60;8.40;16.20;100660.00;;;;5023902;28;20463;-77
2021/06/23 02:29:41;;;;;;;12.50;8.93;;;15.60;8.80;16.10;100636.00;;;;4992477;28;20463;-76
2021/06/23 02:32:14;;;;;;;11.70;9.20;;;15.60;8.80;16.10;100677.00;;;;4997320;28;20524;-76
2021/06/23 02:34:47;;;;;;;11.43;9.10;;;15.60;9.20;16.10;100663.00;;;;4993423;28;20465;-77
2021/06/23 02:37:25;;;;;;;14.67;9.17;;;15.50;9.30;16.20;100647.00;;;;4984154;28;20458;-76
2021/06/23 02:39:55;;;;;;;12.73;8.67;;;15.60;9.10;16.20;100642.00;;;;4982289;28;20620;-77
2021/06/23 02:42:25;;;;;;;9.80;8.40;;;15.60;8.80;16.30;100663.00;;;;5004975;28;20477;-77
2021/06/23 02:44:54;;;;;;;10.00;8.10;;;15.60;8.80;16.30;100679.00;;;;5006398;28;20461;-77
2021/06/23 02:47:24;;;;;;;12.40;8.00;;;15.70;8.50;16.30;100661.00;;;;4991382;28;20976;-77
2021/06/23 02:50:09;;;;;;;12.80;8.40;;;15.70;8.30;16.30;100668.00;;;;5005923;28;20474;-77
2021/06/23 02:52:58;;;;;;;11.10;8.23;;;15.70;8.40;16.30;100637.00;;;;4984578;28;20557;-76
2021/06/23 02:55:27;;;;;;;11.20;8.40;;;15.70;8.40;16.30;100665.00;;;;4988618;28;20462;-76
2021/06/23 02:57:59;;;;;;;10.43;8.33;;;15.70;8.40;16.30;100663.00;;;;5005978;28;20451;-76
2021/06/23 03:00:29;;;;;;;18.77;8.60;;;15.70;8.40;16.30;100684.00;;;;5003641;28;20565;-76
2021/06/23 03:02:58;;;;;;;13.43;8.77;;;15.70;8.40;16.30;100665.00;;;;4988493;28;20489;-76
2021/06/23 03:05:27;;;;;;;9.97;8.53;;;15.70;8.30;16.30;100678.00;;;;4993910;28;20819;-77
2021/06/23 03:07:56;;;;;;;11.20;8.30;;;15.70;8.40;16.30;100637.00;;;;4992974;28;20489;-76
2021/06/23 03:10:35;;;;;;;14.30;8.83;;;15.70;8.60;16.30;100658.00;;;;5005276;28;20573;-76
2021/06/23 03:13:11;;;;;;;10.50;8.27;;;15.70;8.30;16.40;100655.00;;;;4993720;28;20486;-76
2021/06/23 03:15:58;;;;;;;16.67;8.50;;;15.70;8.40;16.40;100624.00;;;;4994468;28;20462;-77
2021/06/23 03:18:34;;;;;;;10.70;7.90;;;15.80;8.40;16.40;100645.00;;;;5011880;28;20461;-76
2021/06/23 03:21:07;;;;;;;12.47;9.33;;;15.80;8.20;16.40;100684.00;;;;4990424;28;20451;-77
2021/06/23 03:23:39;;;;;;;11.90;8.00;;;15.80;8.10;16.50;100678.00;;;;4993609;28;20477;-76
2021/06/23 03:26:08;;;;;;;8.70;7.80;;;15.80;8.10;16.50;100680.00;;;;4992272;28;20907;-76
2021/06/23 03:28:38;;;;;;;11.07;8.20;;;15.80;7.70;16.50;100671.00;;;;4993377;28;20454;-77
2021/06/23 03:31:06;;;;;;;8.93;7.80;;;15.80;7.70;16.50;100679.00;;;;5009296;28;20995;-76
2021/06/23 03:33:38;;;;;;;9.63;7.97;;;15.80;7.80;16.50;100675.00;;;;5003444;28;21004;-76
2021/06/23 03:36:35;;;;;;;12.40;8.13;;;15.90;7.60;16.50;100627.00;;;;4988841;28;20956;-76
2021/06/23 03:39:04;;;;;;;11.00;8.10;;;15.90;7.70;16.50;100665.00;;;;4993302;28;20450;-76
2021/06/23 03:41:44;;;;;;;9.90;7.00;;;15.90;7.60;16.50;100676.00;;;;5029022;28;20965;-76
2021/06/23 03:44:14;;;;;;;11.07;8.10;;;15.90;7.40;16.60;100683.00;;;;4993775;28;20462;-76
2021/06/23 03:46:43;;;;;;;10.93;8.50;;;16.00;7.50;16.60;100700.00;;;;4993292;28;20862;-76
2021/06/23 03:49:11;;;;;;;11.63;8.00;;;16.00;7.20;16.60;100679.00;;;;4993133;28;20830;-76
2021/06/23 03:51:40;;;;;;;9.60;7.77;;;16.00;7.20;16.60;100690.00;;;;4991575;28;20512;-76
2021/06/23 03:54:09;;;;;;;9.80;7.47;;;16.00;7.10;16.70;100682.00;;;;4994140;28;20482;-76
2021/06/23 03:56:44;;;;;;;10.10;8.37;;;16.10;7.00;16.80;100687.00;;;;4993003;28;20987;-76
2021/06/23 03:59:15;;;;;;;12.40;8.40;;;16.10;6.50;16.80;100666.00;;;;4997906;28;20567;-75
2021/06/23 04:01:43;;;;;;;12.60;7.87;;;16.20;6.40;16.90;100682.00;;;;4996084;28;20450;-76
2021/06/23 04:04:14;;;;;;;12.23;8.00;;;16.20;6.10;16.90;100685.00;;;;5002022;28;20550;-76
2021/06/23 04:07:02;;;;;;;11.30;8.13;;;16.30;5.70;16.90;100670.00;;;;4993406;28;20458;-76
2021/06/23 04:09:32;;;;;;;8.50;7.60;;;16.30;5.50;17.00;100679.00;;;;4992156;28;20454;-76
2021/06/23 04:12:05;;;;;;;8.47;7.50;;;16.40;5.40;16.90;100696.00;;;;5009302;28;20487;-76
2021/06/23 04:14:46;;;;;;;9.03;7.93;;;16.40;5.40;17.00;100699.00;;;;5005711;28;20458;-76
2021/06/23 04:17:15;;;;;;;8.77;7.90;;;16.40;5.70;16.90;100703.00;;;;4986694;28;20463;-76
2021/06/23 04:19:44;;;;;;;8.77;7.87;;;16.40;5.10;17.00;100696.00;;;;4984369;28;20554;-76
2021/06/23 04:22:24;;;;;;;10.87;8.80;;;16.40;4.70;17.10;100703.00;;;;4991966;28;20540;-76
2021/06/23 04:24:56;;;;;;;11.70;7.80;;;16.60;5.30;17.10;100677.00;;;;4977266;28;20451;-76
2021/06/23 04:27:25;;;;;;;8.87;7.40;;;16.60;4.60;17.20;100712.00;;;;4994611;28;20459;-77
2021/06/23 04:29:57;;;;;;;9.17;7.80;;;16.60;4.60;17.30;100708.00;;;;5009126;28;20454;-77
2021/06/23 04:32:26;;;;;;;15.97;9.23;;;16.70;4.40;17.30;100713.00;;;;4989366;28;21083;-76
2021/06/23 04:35:06;;;;;;;9.00;7.43;;;16.70;4.00;17.40;100712.00;;;;5009963;28;20454;-76
2021/06/23 04:37:38;;;;;;;11.83;8.20;;;16.80;4.60;17.30;100712.00;;;;4998807;28;20450;-76
2021/06/23 04:40:11;;;;;;;14.77;7.60;;;16.80;3.80;17.50;100693.00;;;;4997206;28;20446;-76
2021/06/23 04:42:42;;;;;;;13.80;8.03;;;16.90;4.00;17.60;100708.00;;;;4980738;28;20538;-76
2021/06/23 04:45:15;;;;;;;13.90;8.80;;;17.00;3.90;17.70;100697.00;;;;5004878;28;20497;-76
2021/06/23 04:48:00;;;;;;;10.70;8.07;;;17.10;2.90;17.90;100693.00;;;;4992023;28;20554;-76
2021/06/23 04:50:33;;;;;;;13.47;7.97;;;17.20;2.40;18.00;100704.00;;;;4983173;28;20455;-76
2021/06/23 04:53:09;;;;;;;8.97;7.40;;;17.30;1.70;18.10;100687.00;;;;4999603;28;20486;-76
2021/06/23 04:55:39;;;;;;;11.13;7.30;;;17.40;1.00;18.10;100691.00;;;;4989521;28;20450;-76
2021/06/23 04:58:12;;;;;;;11.53;6.77;;;17.50;1.00;18.30;100690.00;;;;4992951;28;20443;-77
2021/06/23 05:00:42;;;;;;;10.37;7.87;;;17.60;1.00;18.40;100690.00;;;;4992154;28;20472;-77
2021/06/23 05:03:18;;;;;;;11.00;8.33;;;17.70;1.00;18.50;100672.00;;;;5000302;28;20474;-77
2021/06/23 05:05:46;;;;;;;14.00;8.13;;;17.80;1.00;18.60;100695.00;;;;4993000;28;20462;-75
2021/06/23 05:08:14;;;;;;;9.93;7.97;;;17.90;1.00;18.60;100669.00;;;;4997668;28;20449;-76
2021/06/23 05:10:43;;;;;;;10.00;7.23;;;17.90;1.00;18.80;100677.00;;;;4991257;28;20541;-76
2021/06/23 05:13:11;;;;;;;13.33;7.40;;;18.00;1.00;18.90;100673.00;;;;5017150;28;20476;-76
2021/06/23 05:15:41;;;;;;;8.67;7.33;;;18.10;1.00;19.00;100703.00;;;;4992864;28;20882;-77
2021/06/23 05:18:10;;;;;;;10.97;7.43;;;18.20;1.00;19.10;100695.00;;;;5003770;28;20466;-77
2021/06/23 05:20:38;;;;;;;11.00;7.53;;;18.40;1.00;19.20;100710.00;;;;4998070;28;20534;-77
2021/06/23 05:23:06;;;;;;;9.47;6.80;;;18.40;1.00;19.20;100685.00;;;;5020063;28;20485;-77
2021/06/23 05:25:35;;;;;;;10.97;7.63;;;18.40;1.00;19.00;100697.00;;;;5020128;28;20468;-75
2021/06/23 05:28:05;;;;;;;11.53;7.40;;;18.20;1.00;19.00;100721.00;;;;5015218;28;20452;-75
2021/06/23 05:30:33;;;;;;;10.23;7.20;;;18.20;1.00;19.00;100727.00;;;;4995284;28;20542;-75
2021/06/23 05:33:03;;;;;;;8.30;7.03;;;18.20;1.00;19.10;100720.00;;;;5011065;28;20517;-77
2021/06/23 05:35:32;;;;;;;10.80;6.80;;;18.20;1.00;19.10;100722.00;;;;5007008;28;20459;-76
2021/06/23 05:38:00;;;;;;;10.53;6.80;;;18.30;1.00;19.30;100706.00;;;;4996101;28;20458;-75
2021/06/23 05:40:28;;;;;;;11.63;7.13;;;18.50;1.00;19.40;100695.00;;;;4990066;28;20541;-77
2021/06/23 05:42:57;;;;;;;10.80;6.77;;;18.70;1.00;19.50;100717.00;;;;4993086;28;20511;-76
2021/06/23 05:45:25;;;;;;;9.47;7.00;;;18.70;1.00;19.60;100716.00;;;;4999464;28;20525;-76
2021/06/23 05:47:54;;;;;;;9.53;7.50;;;18.80;1.00;19.70;100724.00;;;;5001780;28;20549;-76
2021/06/23 05:50:24;;;;;;;10.23;6.30;;;18.90;1.00;19.90;100699.00;;;;5000832;28;20518;-76
2021/06/23 05:52:53;;;;;;;12.27;7.00;;;19.10;1.00;20.10;100721.00;;;;4974554;28;20912;-76
2021/06/23 05:55:23;;;;;;;10.57;7.83;;;19.30;1.00;20.00;100732.00;;;;4994883;28;20504;-77
2021/06/23 05:57:52;;;;;;;11.20;7.70;;;19.30;1.00;20.20;100739.00;;;;4992125;28;20459;-77
2021/06/23 06:00:23;;;;;;;9.70;6.70;;;19.40;1.00;20.30;100743.00;;;;4992248;28;20458;-77
2021/06/23 06:02:52;;;;;;;10.40;7.20;;;19.40;1.00;20.30;100725.00;;;;4982776;28;20479;-76
2021/06/23 06:05:21;;;;;;;10.77;7.40;;;19.50;1.00;20.50;100730.00;;;;4997259;28;20981;-77
2021/06/23 06:07:51;;;;;;;10.93;6.50;;;19.60;1.00;20.60;100743.00;;;;4986957;28;20451;-77
2021/06/23 06:10:19;;;;;;;7.10;6.33;;;19.70;1.00;20.60;100737.00;;;;5010031;28;20469;-75
2021/06/23 06:12:48;;;;;;;8.03;6.87;;;19.80;1.00;20.50;100737.00;;;;4986671;28;20490;-76
2021/06/23 06:15:17;;;;;;;10.40;6.13;;;19.90;1.00;20.50;100749.00;;;;4990221;28;20454;-76
2021/06/23 06:17:45;;;;;;;8.83;6.50;;;19.90;1.00;20.40;100753.00;;;;4989538;28;20462;-76
2021/06/23 06:20:15;;;;;;;9.17;6.90;;;19.90;1.00;20.30;100752.00;;;;4991749;28;20458;-77
2021/06/23 06:22:43;;;;;;;8.67;6.83;;;19.80;1.00;20.10;100727.00;;;;4991884;28;20484;-77
2021/06/23 06:25:14;;;;;;;9.20;6.80;;;19.50;1.00;20.00;100751.00;;;;4992563;28;20980;-77
2021/06/23 06:27:43;;;;;;;8.87;6.77;;;19.40;1.00;19.90;100754.00;;;;5006723;28;20451;-77
2021/06/23 06:30:12;;;;;;;9.70;6.67;;;19.30;1.00;19.70;100744.00;;;;4997304;28;20580;-77
2021/06/23 06:32:41;;;;;;;11.30;7.00;;;19.10;1.00;19.60;100755.00;;;;4989112;28;20492;-77
2021/06/23 06:35:11;;;;;;;9.30;8.03;;;19.00;1.00;19.60;100724.00;;;;4993801;28;20776;-77
2021/06/23 06:37:39;;;;;;;8.50;6.97;;;18.90;1.00;19.50;100765.00;;;;4994003;28;20513;-76
2021/06/23 06:40:09;;;;;;;10.90;7.73;;;18.90;1.00;19.40;100742.00;;;;4997759;28;20833;-77
2021/06/23 06:42:39;;;;;;;8.17;7.03;;;18.80;1.00;19.30;100761.00;;;;5001984;28;20547;-77
2021/06/23 06:45:12;;;;;;;11.37;7.30;;;18.80;1.00;19.40;100769.00;;;;5015246;28;20461;-76
2021/06/23 06:47:41;;;;;;;8.03;7.10;;;18.80;1.00;19.50;100766.00;;;;5000249;28;20465;-75
2021/06/23 06:50:10;;;;;;;10.43;7.57;;;18.80;1.00;19.50;100757.00;;;;5012990;28;20883;-76
2021/06/23 06:52:40;;;;;;;11.17;8.00;;;18.90;1.00;19.60;100775.00;;;;5012513;28;21019;-76
2021/06/23 06:55:10;;;;;;;11.70;6.90;;;19.10;1.00;19.60;100771.00;;;;4997265;28;20450;-76
2021/06/23 06:57:39;;;;;;;9.20;7.33;;;19.00;1.00;19.70;100780.00;;;;4995711;28;20580;-76
2021/06/23 07:00:09;;;;;;;11.43;7.33;;;19.10;1.00;19.80;100777.00;;;;4990140;28;20462;-76
2021/06/23 07:02:38;;;;;;;10.77;8.20;;;19.10;1.00;19.90;100766.00;;;;5008348;28;20476;-76
2021/06/23 07:05:08;;;;;;;10.00;7.60;;;19.20;1.00;20.10;100785.00;;;;4997658;28;20469;-77
2021/06/23 07:07:36;;;;;;;9.10;7.00;;;19.40;1.00;20.10;100798.00;;;;4990065;28;20450;-76
2021/06/23 07:10:06;;;;;;;10.50;7.50;;;19.50;1.00;20.40;100785.00;;;;5005477;28;20549;-76
2021/06/23 07:12:35;;;;;;;16.50;7.73;;;19.60;1.00;20.50;100792.00;;;;4995758;28;20485;-76
2021/06/23 07:15:07;;;;;;;10.90;7.63;;;19.70;1.00;20.60;100767.00;;;;4996392;28;20833;-76
2021/06/23 07:17:36;;;;;;;10.40;7.50;;;19.80;1.00;20.60;100778.00;;;;4995320;28;20519;-76
2021/06/23 07:20:06;;;;;;;12.00;8.13;;;19.90;1.00;20.80;100786.00;;;;4990281;28;20482;-75
2021/06/23 07:22:34;;;;;;;12.50;7.30;;;19.90;1.00;20.80;100766.00;;;;4994711;28;20573;-76
2021/06/23 07:25:04;;;;;;;9.00;6.47;;;20.00;1.00;20.80;100767.00;;;;4987799;28;20447;-77
2021/06/23 07:27:32;;;;;;;7.40;6.70;;;20.00;1.00;20.80;100787.00;;;;4994357;28;20454;-77
2021/06/23 07:30:01;;;;;;;9.40;6.60;;;20.00;1.00;20.80;100791.00;;;;4989781;28;20533;-76
2021/06/23 07:32:33;;;;;;;9.80;7.27;;;20.20;1.00;21.00;100794.00;;;;4995111;28;20554;-77
2021/06/23 07:37:44;;;;;;;11.73;6.87;;;20.30;1.00;21.10;100797.00;;;;4990181;28;20453;-76
2021/06/23 07:40:15;;;;;;;10.63;7.00;;;20.40;1.00;21.10;100798.00;;;;4995143;28;20830;-76
2021/06/23 07:42:43;;;;;;;7.40;6.70;;;20.50;1.00;21.20;100798.00;;;;4995459;28;20557;-76
2021/06/23 07:45:13;;;;;;;8.73;7.83;;;20.60;1.00;21.30;100795.00;;;;4998073;28;20454;-75
2021/06/23 07:47:43;;;;;;;11.47;8.00;;;20.60;1.00;21.30;100810.00;;;;4999401;28;20462;-76
2021/06/23 07:50:14;;;;;;;11.60;7.37;;;20.60;1.00;21.30;100802.00;;;;4996088;28;21040;-76
2021/06/23 07:52:49;;;;;;;10.63;7.20;;;20.60;1.00;21.60;100791.00;;;;4997816;28;20586;-75
2021/06/23 08:09:24;;;;;;;10.13;8.83;;;22.10;1.00;22.50;100782.00;;;;5000602;28;20493;-76
2021/06/23 08:11:54;;;;;;;11.43;7.07;;;21.90;1.00;22.40;100780.00;;;;5006009;28;20481;-77
2021/06/23 08:14:23;;;;;;;8.30;7.40;;;21.80;1.00;22.20;100792.00;;;;5007990;28;20546;-77
2021/06/23 08:16:51;;;;;;;7.67;6.97;;;21.70;1.00;22.30;100768.00;;;;5017374;28;20461;-76
2021/06/23 08:19:21;;;;;;;8.20;6.80;;;21.80;1.00;22.30;100768.00;;;;5006502;28;20468;-75
2021/06/23 08:21:49;;;;;;;9.00;7.40;;;21.70;1.00;22.20;100776.00;;;;5015962;28;20454;-76
2021/06/23 08:24:18;;;;;;;11.93;7.87;;;21.70;1.00;22.20;100767.00;;;;5009223;28;20521;-76
2021/06/23 08:26:46;;;;;;;8.70;7.43;;;21.70;1.00;22.30;100770.00;;;;5001831;28;20999;-76
2021/06/23 08:29:15;;;;;;;7.83;6.80;;;21.80;1.00;22.20;100757.00;;;;4993598;28;20452;-76
2021/06/23 08:31:43;;;;;;;6.97;6.33;;;21.70;1.00;22.20;100753.00;;;;4992645;28;20458;-76
2021/06/23 08:34:12;;;;;;;7.13;6.47;;;21.80;1.00;22.30;100725.00;;;;4992853;28;20513;-77
2021/06/23 08:36:42;;;;;;;8.40;7.60;;;21.70;1.00;22.30;100745.00;;;;4990195;28;20453;-79
2021/06/23 08:39:10;;;;;;;9.77;7.60;;;21.90;1.00;22.30;100753.00;;;;4996787;28;20872;-76
2021/06/23 08:41:39;;;;;;;8.90;8.00;;;22.00;1.00;22.40;100728.00;;;;4990429;28;20459;-76
2021/06/23 08:44:08;;;;;;;9.00;7.63;;;22.10;1.00;22.50;100749.00;;;;4991403;28;20450;-76
2021/06/23 08:46:38;;;;;;;7.50;6.77;;;22.20;1.00;22.70;100714.00;;;;5005276;28;20456;-76
2021/06/23 08:49:08;;;;;;;8.50;7.10;;;22.60;1.00;22.80;100761.00;;;;4995692;28;20470;-76
2021/06/23 08:51:39;;;;;;;7.83;6.60;;;22.70;1.00;22.70;100766.00;;;;4996282;28;20470;-76
2021/06/23 08:54:09;;;;;;;7.30;6.60;;;22.70;1.00;22.90;100748.00;;;;4998422;28;20482;-76
2021/06/23 08:56:39;;;;;;;9.00;5.70;;;22.80;1.00;22.90;100735.00;;;;4995850;28;20832;-77
2021/06/23 08:59:07;;;;;;;7.80;7.10;;;22.90;1.00;22.90;100750.00;;;;4994586;28;20473;-76
2021/06/23 09:01:36;;;;;;;8.40;6.70;;;23.00;1.00;23.00;100754.00;;;;4989646;28;20552;-74
2021/06/23 09:04:07;;;;;;;8.37;7.57;;;22.90;1.00;22.70;100756.00;;;;4994493;28;20470;-76
2021/06/23 09:06:47;;;;;;;8.20;7.50;;;22.50;1.00;22.70;100758.00;;;;5008196;28;20463;-77
2021/06/23 09:09:21;;;;;;;11.63;9.17;;;22.50;1.00;22.90;100744.00;;;;5001808;28;20539;-75
2021/06/23 09:11:53;;;;;;;7.80;6.47;;;22.60;1.00;23.20;100752.00;;;;5010520;28;20458;-76
2021/06/23 09:14:23;;;;;;;9.60;8.03;;;22.80;1.00;23.30;100736.00;;;;4979883;28;20517;-75
2021/06/23 09:17:17;;;;;;;8.33;7.63;;;23.00;1.00;23.50;100752.00;;;;4986790;28;20461;-75
2021/06/23 09:19:53;;;;;;;9.30;8.30;;;23.10;1.00;23.60;100761.00;;;;5001485;28;20669;-75
2021/06/23 09:22:40;;;;;;;9.70;8.70;;;23.00;1.00;23.70;100725.00;;;;4996114;28;20490;-75
2021/06/23 09:25:27;;;;;;;8.77;6.70;;;23.00;1.00;23.90;100726.00;;;;5006002;28;21006;-75
2021/06/23 09:27:58;;;;;;;11.07;9.83;;;23.20;1.00;23.80;100754.00;;;;5007052;28;20463;-75
2021/06/23 09:30:33;;;;;;;9.93;8.50;;;23.10;1.00;23.90;100747.00;;;;4987693;28;20454;-75
2021/06/23 09:33:17;;;;;;;12.70;7.80;;;23.30;1.00;24.50;100742.00;;;;4987548;28;20517;-74
2021/06/23 09:35:49;;;;;;;8.20;7.30;;;23.90;1.00;25.00;100751.00;;;;4990653;28;20462;-75
2021/06/23 09:38:45;;;;;;;7.40;6.00;;;24.40;1.00;25.10;100758.00;;;;4979124;28;20454;-76
2021/06/23 09:41:28;;;;;;;7.33;6.20;;;24.30;1.00;25.20;100754.00;;;;4987061;28;20455;-75
2021/06/23 09:44:04;;;;;;;7.90;7.10;;;24.30;1.00;25.20;100753.00;;;;4994259;28;20509;-76
2021/06/23 09:46:35;;;;;;;7.87;6.90;;;24.40;1.00;25.50;100755.00;;;;4989141;28;20454;-76
2021/06/23 09:49:11;;;;;;;8.60;7.03;;;24.60;1.00;25.90;100754.00;;;;5014652;28;20486;-77
2021/06/23 09:51:48;;;;;;;8.13;6.50;;;25.10;1.00;25.80;100757.00;;;;5000957;28;20541;-79
2021/06/23 09:54:19;;;;;;;7.27;6.33;;;25.20;1.00;25.80;100756.00;;;;5010358;28;20476;-79
2021/06/23 09:57:14;;;;;;;6.97;6.33;;;25.20;1.00;25.60;100770.00;;;;5015053;28;20454;-79
2021/06/23 09:59:46;;;;;;;7.40;6.70;;;25.00;1.00;25.60;100769.00;;;;5001251;28;20470;-78
2021/06/23 10:02:25;;;;;;;8.20;7.50;;;25.00;1.00;25.70;100773.00;;;;5000309;28;20497;-79
2021/06/23 10:04:53;;;;;;;10.17;7.20;;;25.00;1.00;25.70;100773.00;;;;4997865;28;20542;-80
2021/06/23 10:07:43;;;;;;;9.40;8.43;;;25.00;1.00;25.90;100761.00;;;;5005835;28;20458;-80
2021/06/23 10:10:17;;;;;;;8.90;6.93;;;25.10;1.00;26.30;100761.00;;;;5004345;28;20463;-80
2021/06/23 10:12:49;;;;;;;9.37;8.47;;;25.50;1.00;26.30;100767.00;;;;5013687;28;20490;-79
2021/06/23 10:15:19;;;;;;;9.93;8.17;;;25.70;1.00;26.40;100765.00;;;;5011291;28;20478;-80
2021/06/23 10:17:47;;;;;;;8.53;7.40;;;25.70;1.00;26.70;100736.00;;;;4997605;28;20481;-81
2021/06/23 10:20:18;;;;;;;11.30;10.10;;;25.80;1.00;26.60;100759.00;;;;4999056;28;20461;-80
2021/06/23 10:22:47;;;;;;;9.90;9.00;;;25.80;1.00;26.70;100752.00;;;;4994409;28;20583;-80
2021/06/23 10:25:18;;;;;;;7.93;7.07;;;26.00;1.00;26.80;100742.00;;;;5001322;28;20480;-80
2021/06/23 10:27:50;;;;;;;8.60;7.80;;;26.00;1.00;27.10;100717.00;;;;4999486;28;20512;-80
2021/06/23 10:30:21;;;;;;;7.63;6.90;;;26.40;1.00;27.40;100749.00;;;;5002391;28;20512;-80
2021/06/23 10:32:50;;;;;;;9.93;8.80;;;26.60;1.00;27.40;100728.00;;;;5016147;28;20521;-81
2021/06/23 10:35:18;;;;;;;7.63;6.90;;;26.20;1.00;27.20;100735.00;;;;5004603;28;20494;-81
2021/06/23 10:37:47;;;;;;;11.20;7.60;;;26.20;1.00;27.70;100720.00;;;;5007630;28;20451;-80
2021/06/23 10:40:18;;;;;;;6.50;5.90;;;26.70;1.00;28.00;100730.00;;;;5032573;28;20489;-80
2021/06/23 10:42:48;;;;;;;8.03;7.33;;;27.10;1.00;27.90;100747.00;;;;5014624;28;20461;-78
2021/06/23 10:45:17;;;;;;;8.97;8.17;;;27.10;1.00;27.80;100762.00;;;;5013074;28;20462;-79
2021/06/23 10:47:47;;;;;;;8.40;7.43;;;27.00;1.00;27.80;100758.00;;;;5002067;28;20462;-78
2021/06/23 10:50:34;;;;;;;6.83;6.10;;;26.70;1.00;27.90;100742.00;;;;5012587;28;20935;-79
2021/06/23 10:53:04;;;;;;;13.53;12.20;;;26.70;1.00;27.90;100739.00;;;;5023986;28;20474;-78
2021/06/23 10:55:38;;;;;;;7.73;7.10;;;26.70;1.00;27.80;100754.00;;;;5011098;28;20481;-80
2021/06/23 10:58:11;;;;;;;7.20;6.50;;;26.50;1.00;27.80;100759.00;;;;4998604;28;20453;-79
2021/06/23 11:00:40;;;;;;;8.43;7.63;;;26.40;1.00;27.90;100751.00;;;;5016677;28;20982;-79
2021/06/23 11:03:12;;;;;;;6.60;6.00;;;26.40;1.00;28.10;100740.00;;;;5001185;28;21015;-79
2021/06/23 11:05:45;;;;;;;6.93;6.23;;;26.60;1.00;28.40;100752.00;;;;5011656;28;20461;-79
2021/06/23 11:08:37;;;;;;;6.47;5.87;;;26.90;1.00;28.50;100749.00;;;;5016356;28;20975;-79
2021/06/23 11:11:08;;;;;;;6.40;5.80;;;27.10;1.00;28.50;100743.00;;;;4997014;28;20829;-79
2021/06/23 11:13:40;;;;;;;6.77;6.10;;;27.10;1.00;28.90;100704.00;;;;5014853;28;20496;-80
2021/06/23 11:16:29;;;;;;;6.83;6.10;;;27.60;1.00;29.00;100734.00;;;;5018795;28;20475;-80
2021/06/23 11:19:09;;;;;;;6.60;6.10;;;28.10;1.00;28.80;100742.00;;;;4972180;28;20545;-78
2021/06/23 11:21:38;;;;;;;8.00;5.93;;;28.10;1.00;28.40;100725.00;;;;5010841;28;20458;-78
2021/06/23 11:24:15;;;;;;;6.17;5.67;;;27.80;1.00;27.90;100735.00;;;;4998403;28;20460;-80
2021/06/23 11:27:03;;;;;;;6.67;6.00;;;27.40;1.00;27.70;100736.00;;;;5001260;28;20460;-79
2021/06/23 11:29:38;;;;;;;7.10;6.40;;;27.10;1.00;27.70;100723.00;;;;5006357;28;20461;-80
2021/06/23 11:32:25;;;;;;;6.60;6.10;;;27.30;1.00;27.50;100736.00;;;;4993737;28;20477;-80